KAVQKOSA

Guest
Details From KAVQ - MARANA RGNL
To KOSA - MOUNT PLEASANT RGNL
Flight Number -
Tags decoded
Created
Modified
Stats Distance 841 nm / 1,557 km
Max Altitude 0 ft / 0 m
Waypoints 6
Social Downloads 0
Likes 0
Share VATSIM

Download

Looking for another format? Having issues loading an existing format? Contact us
Advertisement - Login to hide

Notes

Requested: KAVQ DMN EWM WHOLE F41 KOSA

Route

KAVQ DMN EWM WHOLE F41 KOSA

ID Type Via Altitude Latitude Longitude Leg Dist Tot Dist Heading (true) Name
O KAVQ APT - 0 ft / 0 m 32.40905˚ -111.21838˚ - 0 nm - MARANA RGNL
DMN VOR - 0 ft / 0 m 32.27556˚ -107.60550˚ 183 nm 183 nm 92° / 93° DEMING VORTAC
EWM VOR - 0 ft / 0 m 31.95175˚ -106.27239˚ 70 nm 254 nm 106° / 106° NEWMAN VORTAC
WHOLE FIX - 0 ft / 0 m 31.94500˚ -105.86375˚ 20 nm 274 nm 91° / 91° -
F41 APT - 0 ft / 0 m 32.32970˚ -96.66390˚ 468 nm 743 nm 85° / 90° ENNIS MUNI
O KOSA APT - 0 ft / 0 m 33.09553˚ -94.96152˚ 97 nm 840 nm 61° / 62° MOUNT PLEASANT RGNL

Altitude Profile

Advertisement - Login to hide

Weather


0- 5 10 15 20 25 30 35+ Temperature / ° C

Clouds and Precipitation
Forecast for 2017-12-13 06:00 UTC. Updated 42 minutes ago

Ground ~20,000 ft ~40,000 ft Winds

KAVQ

Details ICAO KAVQ (AVW)
Name MARANA RGNL
Region United States
Timezone America/Phoenix (UTC-7.0)
Stats Elevation 2,031 ft / 619 m (AMSL)
Location 32.409049° -111.218379°
Runways 2
Magnetic Variation 9.918° E

METAR

KAVQ 130555Z AUTO 00000KT 10SM CLR 10/M12 A3008 RMK AO2 T01041116

Decode

TAF

Not found

Departure Runways

ID Width Length Bearing (true) Bearing (mag) Surface Threshold Offset Overrun Length
03 75 ft / 23 m 3,895 ft / 1,187 m 45.33° 35.41° Asphalt 494 ft / 151 m 0 ft / 0 m
12 100 ft / 30 m 6,905 ft / 2,105 m 135.61° 125.69° Asphalt 0 ft / 0 m 0 ft / 0 m
21 75 ft / 23 m 3,895 ft / 1,187 m 225.34° 215.42° Asphalt 0 ft / 0 m 0 ft / 0 m
30 100 ft / 30 m 6,905 ft / 2,105 m 315.62° 305.70° Asphalt 0 ft / 0 m 0 ft / 0 m

KOSA

Details ICAO KOSA
Name MOUNT PLEASANT RGNL
Region United States
Timezone America/Chicago (UTC-6.0)
Stats Elevation 363 ft / 111 m (AMSL)
Location 33.095532° -94.961517°
Runways 1
Magnetic Variation 2.142° E

METAR

KOSA 130555Z AUTO 00000KT 10SM CLR 00/M04 A3020 RMK AO1 T10021040 10090 21008 401271008

Decode

TAF

Not found

Destination Runways

ID Width Length Bearing (true) Bearing (mag) Surface Threshold Offset Overrun Length
17 75 ft / 23 m 5,014 ft / 1,528 m 172.04° 169.90° Asphalt 0 ft / 0 m 0 ft / 0 m
35 75 ft / 23 m 5,014 ft / 1,528 m 352.04° 349.90° Asphalt 0 ft / 0 m 0 ft / 0 m

Popular Alternatives